createdAt,value
2022-08-02T00:02:46.713Z,99.90
2022-08-02T00:05:32.596Z,99.90
2022-08-02T00:08:18.159Z,99.90
2022-08-02T00:11:03.786Z,99.90
2022-08-02T00:13:49.431Z,99.90
2022-08-02T00:16:38.126Z,99.90
2022-08-02T00:19:24.408Z,99.90
2022-08-02T00:22:10.213Z,99.90
2022-08-02T00:24:56.019Z,99.90
2022-08-02T00:27:41.565Z,99.90
2022-08-02T00:30:27.114Z,99.90
2022-08-02T00:33:12.570Z,99.90
2022-08-02T00:35:58.185Z,99.90
2022-08-02T00:38:44.341Z,99.90
2022-08-02T00:41:29.875Z,99.90
2022-08-02T00:44:20.334Z,99.90
2022-08-02T00:47:05.879Z,99.90
2022-08-02T00:49:51.609Z,99.90
2022-08-02T00:52:37.203Z,99.90
2022-08-02T00:55:30.739Z,99.90
2022-08-02T00:58:16.948Z,99.90
2022-08-02T01:01:03.585Z,99.90
2022-08-02T01:03:49.120Z,99.90
2022-08-02T01:06:35.409Z,99.90
2022-08-02T01:09:21.264Z,99.90
2022-08-02T01:12:07.689Z,99.90
2022-08-02T01:15:04.948Z,99.90
2022-08-02T01:18:00.761Z,99.90
2022-08-02T01:21:29.265Z,99.90
2022-08-02T01:24:49.007Z,99.90
2022-08-02T01:27:51.186Z,99.90
2022-08-02T01:30:39.176Z,99.90
2022-08-02T01:33:32.569Z,99.90
2022-08-02T01:36:20.203Z,99.90
2022-08-02T01:39:09.825Z,99.90
2022-08-02T01:41:58.773Z,99.90
2022-08-02T01:44:55.084Z,99.90
2022-08-02T01:47:42.896Z,99.90
2022-08-02T01:50:33.530Z,99.90
2022-08-02T01:53:21.487Z,99.90
2022-08-02T01:56:08.721Z,99.90
2022-08-02T01:58:55.120Z,99.90
2022-08-02T02:01:42.545Z,99.90
2022-08-02T02:04:31.242Z,99.90
2022-08-02T02:07:18.735Z,99.90
2022-08-02T02:10:05.716Z,99.90
2022-08-02T02:12:52.399Z,99.90
2022-08-02T02:15:43.482Z,99.90
2022-08-02T02:18:30.681Z,99.90
2022-08-02T02:21:16.725Z,99.90
2022-08-02T02:24:02.765Z,99.90
2022-08-02T02:26:52.242Z,99.90
2022-08-02T02:29:44.473Z,99.90
2022-08-02T02:32:32.086Z,99.90
2022-08-02T02:35:18.455Z,99.90
2022-08-02T02:38:06.499Z,99.90
2022-08-02T02:40:52.790Z,99.90
2022-08-02T02:43:39.693Z,99.90
2022-08-02T02:46:26.958Z,99.90
2022-08-02T02:49:14.964Z,99.90
2022-08-02T02:52:01.645Z,99.90
2022-08-02T02:54:49.724Z,99.90
2022-08-02T02:57:37.261Z,99.90
2022-08-02T03:00:44.175Z,99.90
2022-08-02T03:03:31.002Z,99.90
2022-08-02T03:06:17.295Z,99.90
2022-08-02T03:09:03.414Z,99.90
2022-08-02T03:11:49.565Z,99.90
2022-08-02T03:14:40.124Z,99.90
2022-08-02T03:17:25.980Z,99.90
2022-08-02T03:20:14.416Z,99.90
2022-08-02T03:23:00.247Z,99.90
2022-08-02T03:25:45.542Z,99.90
2022-08-02T03:28:31.275Z,99.90
2022-08-02T03:31:17.245Z,99.90
2022-08-02T03:34:02.996Z,99.90
2022-08-02T03:36:52.193Z,99.90
2022-08-02T03:39:38.320Z,99.90
2022-08-02T03:42:40.101Z,99.90
2022-08-02T03:45:26.305Z,99.90
2022-08-02T03:48:30.589Z,99.90
2022-08-02T03:51:20.006Z,99.90
2022-08-02T03:54:05.718Z,99.90
2022-08-02T03:56:52.505Z,99.90
2022-08-02T03:59:46.342Z,99.90
2022-08-02T04:02:32.184Z,99.90
2022-08-02T04:05:18.192Z,99.90
2022-08-02T04:08:35.541Z,99.90
2022-08-02T04:11:27.746Z,99.90
2022-08-02T04:14:13.479Z,99.90
2022-08-02T04:17:09.494Z,99.90
2022-08-02T04:20:00.936Z,99.90
2022-08-02T04:22:49.844Z,99.90
2022-08-02T04:25:40.210Z,99.90
2022-08-02T04:28:29.092Z,99.90
2022-08-02T04:31:17.331Z,99.90
2022-08-02T04:34:03.757Z,99.90
2022-08-02T04:36:49.789Z,99.90
2022-08-02T04:39:35.404Z,99.90
2022-08-02T04:42:25.569Z,99.90
2022-08-02T04:45:11.676Z,99.90
2022-08-02T04:48:05.123Z,99.90
2022-08-02T04:50:51.570Z,99.90
2022-08-02T04:53:37.390Z,99.90
2022-08-02T04:56:23.122Z,99.90
2022-08-02T04:59:09.164Z,99.90
2022-08-02T05:01:54.550Z,99.90
2022-08-02T05:04:40.293Z,99.90
2022-08-02T05:07:25.838Z,99.90
2022-08-02T05:10:11.440Z,99.90
2022-08-02T05:12:56.954Z,99.90
2022-08-02T05:15:42.595Z,99.90
2022-08-02T05:18:28.632Z,99.90
2022-08-02T05:21:14.217Z,99.90
2022-08-02T05:24:01.366Z,99.90
2022-08-02T05:26:47.005Z,99.90
2022-08-02T05:29:32.496Z,99.90
2022-08-02T05:32:18.640Z,99.90
2022-08-02T05:35:04.567Z,99.90
2022-08-02T05:37:51.518Z,99.90
2022-08-02T05:40:37.823Z,99.90
2022-08-02T05:43:40.018Z,99.90
2022-08-02T05:46:25.515Z,99.90
2022-08-02T05:49:11.335Z,99.90
2022-08-02T05:52:09.843Z,99.90
2022-08-02T05:55:24.931Z,99.90
2022-08-02T05:58:14.258Z,99.90
2022-08-02T06:01:02.767Z,99.90
2022-08-02T06:03:52.202Z,99.90
2022-08-02T06:06:43.269Z,99.90
2022-08-02T06:09:29.625Z,99.90
2022-08-02T06:12:17.520Z,99.90
2022-08-02T06:15:04.593Z,99.90
2022-08-02T06:17:52.326Z,99.90
2022-08-02T06:20:38.020Z,99.90
2022-08-02T06:23:24.075Z,99.90
2022-08-02T06:26:11.881Z,99.90
2022-08-02T06:28:58.517Z,99.90
2022-08-02T06:31:45.326Z,99.90
2022-08-02T06:34:30.874Z,99.90
2022-08-02T06:37:25.337Z,99.90
2022-08-02T06:40:32.294Z,99.90
2022-08-02T06:43:41.095Z,99.90
2022-08-02T06:46:38.035Z,99.90
2022-08-02T06:49:52.658Z,99.90
2022-08-02T06:52:38.764Z,99.90
2022-08-02T06:55:24.356Z,99.90
2022-08-02T06:58:09.972Z,99.90
2022-08-02T07:00:55.707Z,99.90
2022-08-02T07:03:41.649Z,99.90
2022-08-02T07:06:27.122Z,99.90
2022-08-02T07:09:21.629Z,99.90
2022-08-02T07:12:07.790Z,99.90
2022-08-02T07:14:53.246Z,99.90
2022-08-02T07:17:38.873Z,99.90
2022-08-02T07:20:24.439Z,99.90
2022-08-02T07:23:09.834Z,99.90
2022-08-02T07:26:02.425Z,99.90
2022-08-02T07:28:49.085Z,99.90
2022-08-02T07:31:34.546Z,99.90
2022-08-02T07:34:19.968Z,99.50
2022-08-02T07:37:05.632Z,99.00
2022-08-02T07:39:54.801Z,99.20
2022-08-02T07:42:41.663Z,97.90
2022-08-02T07:45:28.654Z,98.00
2022-08-02T07:48:14.477Z,97.40
2022-08-02T07:50:59.887Z,97.60
2022-08-02T07:53:51.228Z,97.00
2022-08-02T07:56:47.854Z,96.90
2022-08-02T07:59:43.238Z,95.80
2022-08-02T08:02:28.684Z,95.70
2022-08-02T08:05:14.939Z,95.20
2022-08-02T08:08:00.439Z,94.20
2022-08-02T08:10:47.489Z,94.90
2022-08-02T08:13:33.428Z,94.20
2022-08-02T08:16:19.036Z,94.00
2022-08-02T08:19:04.757Z,92.80
2022-08-02T08:21:50.231Z,92.10
2022-08-02T08:24:35.658Z,90.70
2022-08-02T08:27:23.008Z,90.10
2022-08-02T08:30:09.432Z,88.20
2022-08-02T08:32:55.134Z,89.40
2022-08-02T08:35:40.862Z,90.50
2022-08-02T08:38:26.395Z,88.80
2022-08-02T08:41:19.184Z,88.90
2022-08-02T08:44:05.243Z,89.50
2022-08-02T08:46:51.660Z,87.70
2022-08-02T08:49:52.342Z,85.50
2022-08-02T08:53:01.821Z,84.70
2022-08-02T08:55:48.603Z,84.00
2022-08-02T08:58:34.459Z,84.70
2022-08-02T09:01:20.462Z,82.70
2022-08-02T09:04:06.072Z,85.20
2022-08-02T09:06:51.791Z,80.20
2022-08-02T09:09:37.489Z,79.10
2022-08-02T09:12:24.983Z,78.70
2022-08-02T09:15:15.859Z,79.00
2022-08-02T09:18:04.390Z,78.10
2022-08-02T09:20:58.498Z,76.10
2022-08-02T09:23:49.563Z,74.20
2022-08-02T09:26:37.010Z,74.80
2022-08-02T09:29:24.366Z,73.20
2022-08-02T09:32:10.575Z,74.30
2022-08-02T09:34:56.321Z,73.60
2022-08-02T09:37:42.803Z,72.00
2022-08-02T09:40:40.649Z,72.20
2022-08-02T09:44:03.324Z,72.50
2022-08-02T09:46:50.023Z,71.20
2022-08-02T09:49:46.488Z,71.90
2022-08-02T09:52:43.519Z,69.90
2022-08-02T09:55:29.744Z,70.90
2022-08-02T09:58:18.481Z,71.10
2022-08-02T10:01:04.237Z,69.30
2022-08-02T10:03:58.225Z,68.60
2022-08-02T10:06:46.993Z,66.50
2022-08-02T10:09:32.593Z,68.70
2022-08-02T10:12:20.585Z,65.30
2022-08-02T10:15:06.812Z,67.00
2022-08-02T10:17:52.922Z,67.60
2022-08-02T10:20:44.904Z,66.10
2022-08-02T10:23:36.418Z,63.20
2022-08-02T10:26:21.913Z,62.70
2022-08-02T10:29:09.947Z,64.20
2022-08-02T10:32:13.880Z,64.70
2022-08-02T10:35:20.154Z,63.30
2022-08-02T10:38:12.771Z,63.30
2022-08-02T10:40:58.536Z,59.90
2022-08-02T10:43:47.956Z,61.40
2022-08-02T10:46:35.738Z,60.60
2022-08-02T10:49:40.116Z,61.40
2022-08-02T10:52:29.847Z,59.00
2022-08-02T10:55:22.335Z,59.10
2022-08-02T10:58:19.493Z,60.30
2022-08-02T11:01:26.794Z,62.10
2022-08-02T11:04:24.028Z,59.40
2022-08-02T11:07:11.109Z,59.20
2022-08-02T11:09:57.067Z,58.70
2022-08-02T11:13:15.968Z,57.60
2022-08-02T11:16:10.655Z,55.50
2022-08-02T11:18:57.016Z,57.10
2022-08-02T11:21:59.878Z,55.40
2022-08-02T11:24:47.292Z,54.50
2022-08-02T11:27:33.249Z,52.90
2022-08-02T11:30:19.450Z,53.20
2022-08-02T11:33:12.208Z,53.40
2022-08-02T11:36:02.826Z,51.30
2022-08-02T11:38:48.431Z,52.60
2022-08-02T11:41:45.887Z,52.00
2022-08-02T11:44:40.011Z,53.40
2022-08-02T11:47:25.628Z,51.00
2022-08-02T11:50:11.548Z,50.80
2022-08-02T11:52:57.511Z,50.90
2022-08-02T11:55:43.454Z,47.90
2022-08-02T11:58:28.934Z,49.70
2022-08-02T12:01:14.412Z,48.60
2022-08-02T12:04:03.265Z,46.90
2022-08-02T12:06:54.866Z,47.20
2022-08-02T12:09:41.536Z,45.60
2022-08-02T12:12:27.361Z,46.30
2022-08-02T12:15:13.571Z,47.80
2022-08-02T12:18:18.729Z,47.50
2022-08-02T12:21:20.737Z,46.10
2022-08-02T12:24:06.556Z,45.60
2022-08-02T12:26:52.321Z,44.20
2022-08-02T12:29:55.878Z,44.90
2022-08-02T12:32:45.896Z,45.60
2022-08-02T12:35:31.483Z,44.10
2022-08-02T12:38:17.533Z,43.40
2022-08-02T12:41:31.870Z,43.20
2022-08-02T12:44:19.773Z,43.90
2022-08-02T12:47:09.739Z,44.10
2022-08-02T12:50:37.587Z,43.20
2022-08-02T12:53:32.593Z,40.80
2022-08-02T12:56:33.517Z,41.20
2022-08-02T12:59:38.952Z,42.20
2022-08-02T13:02:25.361Z,42.70
2022-08-02T13:05:11.239Z,42.60
2022-08-02T13:07:59.135Z,42.50
2022-08-02T13:10:45.312Z,41.30
2022-08-02T13:13:31.122Z,40.00
2022-08-02T13:16:16.915Z,41.50
2022-08-02T13:19:02.791Z,42.20
2022-08-02T13:22:01.410Z,39.20
2022-08-02T13:24:56.485Z,39.90
2022-08-02T13:27:42.517Z,42.20
2022-08-02T13:30:28.138Z,39.90
2022-08-02T13:33:14.444Z,42.70
2022-08-02T13:36:00.081Z,42.40
2022-08-02T13:38:46.027Z,40.40
2022-08-02T13:41:32.485Z,38.30
2022-08-02T13:44:18.363Z,37.40
2022-08-02T13:47:04.488Z,39.60
2022-08-02T13:49:53.486Z,39.40
2022-08-02T13:52:39.040Z,37.30
2022-08-02T13:55:24.961Z,34.70
2022-08-02T13:58:10.577Z,36.10
2022-08-02T14:00:56.621Z,36.80
2022-08-02T14:04:07.355Z,36.10
2022-08-02T14:06:47.778Z,35.30
2022-08-02T14:09:33.472Z,35.40
2022-08-02T14:12:19.457Z,34.10
2022-08-02T14:15:05.346Z,36.00
2022-08-02T14:17:50.884Z,33.80
2022-08-02T14:20:38.347Z,35.30
2022-08-02T14:23:49.210Z,34.90
2022-08-02T14:26:30.568Z,37.60
2022-08-02T14:29:16.937Z,38.90
2022-08-02T14:32:02.614Z,37.20
2022-08-02T14:34:48.593Z,35.20
2022-08-02T14:37:34.974Z,36.20
2022-08-02T14:40:30.759Z,34.10
2022-08-02T14:43:35.543Z,34.20
2022-08-02T14:46:21.010Z,35.90
2022-08-02T14:49:08.937Z,32.50
2022-08-02T14:51:55.174Z,31.10
2022-08-02T14:54:43.059Z,32.10
2022-08-02T14:57:28.671Z,31.90
2022-08-02T15:00:15.395Z,32.60
2022-08-02T15:03:01.179Z,35.30
2022-08-02T15:05:46.740Z,32.70
2022-08-02T15:08:34.672Z,33.50
2022-08-02T15:11:20.284Z,33.90
2022-08-02T15:14:05.989Z,32.70
2022-08-02T15:16:56.984Z,32.90
2022-08-02T15:19:58.065Z,32.90
2022-08-02T15:22:46.627Z,33.10
2022-08-02T15:25:41.069Z,32.50
2022-08-02T15:28:29.337Z,34.50
2022-08-02T15:31:32.797Z,33.00
2022-08-02T15:34:19.004Z,31.40
2022-08-02T15:37:04.995Z,33.10
2022-08-02T15:39:50.593Z,32.20
2022-08-02T15:42:36.006Z,33.40
2022-08-02T15:45:21.593Z,31.50
2022-08-02T15:48:07.911Z,32.60
2022-08-02T15:50:53.805Z,31.80
2022-08-02T15:53:39.397Z,32.20
2022-08-02T15:56:24.894Z,33.60
2022-08-02T15:59:10.557Z,32.60
2022-08-02T16:01:55.952Z,31.70
2022-08-02T16:04:41.846Z,31.80
2022-08-02T16:07:27.502Z,32.60
2022-08-02T16:10:13.022Z,33.00
2022-08-02T16:13:18.922Z,32.60
2022-08-02T16:16:04.804Z,33.00
2022-08-02T16:18:50.899Z,33.00
2022-08-02T16:21:36.625Z,37.80
2022-08-02T16:24:22.591Z,36.80
2022-08-02T16:27:08.516Z,36.40
2022-08-02T16:29:54.537Z,36.60
2022-08-02T16:32:40.294Z,39.50
2022-08-02T16:35:28.046Z,37.20
2022-08-02T16:38:13.841Z,35.30
2022-08-02T16:41:01.659Z,34.80
2022-08-02T16:43:47.575Z,34.20
2022-08-02T16:46:33.259Z,35.00
2022-08-02T16:50:04.472Z,37.40
2022-08-02T16:52:24.449Z,36.40
2022-08-02T16:55:11.057Z,34.50
2022-08-02T16:57:58.569Z,34.60
2022-08-02T17:00:46.557Z,35.40
2022-08-02T17:03:56.949Z,35.10
2022-08-02T17:06:40.028Z,37.20
2022-08-02T17:10:04.554Z,37.70
2022-08-02T17:12:40.447Z,35.40
2022-08-02T17:16:16.254Z,37.40
2022-08-02T17:18:33.903Z,39.10
2022-08-02T17:21:19.920Z,38.90
2022-08-02T17:24:08.238Z,38.10
2022-08-02T17:26:54.085Z,37.40
2022-08-02T17:29:39.467Z,37.00
2022-08-02T17:32:29.245Z,37.70
2022-08-02T17:35:15.660Z,37.40
2022-08-02T17:38:02.600Z,37.50
2022-08-02T17:40:50.970Z,39.30
2022-08-02T17:43:41.060Z,38.40
2022-08-02T17:46:26.900Z,39.20
2022-08-02T17:49:16.926Z,39.50
2022-08-02T17:52:48.372Z,38.90
2022-08-02T17:55:10.677Z,40.40
2022-08-02T17:57:58.487Z,40.80
2022-08-02T18:00:45.025Z,41.70
2022-08-02T18:03:30.422Z,43.10
2022-08-02T18:06:15.870Z,43.10
2022-08-02T18:09:02.927Z,44.70
2022-08-02T18:11:53.135Z,45.00
2022-08-02T18:17:44.168Z,45.10
2022-08-02T18:20:30.242Z,44.70
2022-08-02T18:23:15.875Z,46.00
2022-08-02T18:26:02.141Z,44.70
2022-08-02T18:28:47.631Z,45.30
2022-08-02T18:31:39.752Z,45.60
2022-08-02T18:34:25.479Z,45.10
2022-08-02T18:37:11.263Z,45.40
2022-08-02T18:39:56.719Z,45.50
2022-08-02T18:42:42.354Z,45.30
2022-08-02T18:46:06.223Z,45.60
2022-08-02T18:48:46.146Z,46.40
2022-08-02T18:51:36.709Z,48.20
2022-08-02T18:54:30.604Z,50.40
2022-08-02T18:58:16.945Z,53.30
2022-08-02T19:00:24.885Z,51.80
2022-08-02T19:03:11.361Z,53.10
2022-08-02T19:05:59.893Z,51.50
2022-08-02T19:08:45.651Z,54.30
2022-08-02T19:11:51.167Z,54.50
2022-08-02T19:14:36.910Z,54.60
2022-08-02T19:17:55.624Z,55.90
2022-08-02T19:20:29.099Z,55.90
2022-08-02T19:23:15.013Z,55.30
2022-08-02T19:26:02.755Z,55.60
2022-08-02T19:28:49.599Z,54.90
2022-08-02T19:31:59.865Z,52.70
2022-08-02T19:34:40.801Z,53.50
2022-08-02T19:37:31.538Z,53.70
2022-08-02T19:40:24.487Z,54.80
2022-08-02T19:44:26.323Z,54.90
2022-08-02T19:46:16.910Z,54.80
2022-08-02T19:49:17.072Z,56.00
2022-08-02T19:52:20.514Z,56.50
2022-08-02T19:55:58.745Z,57.00
2022-08-02T19:58:13.822Z,57.70
2022-08-02T20:00:59.228Z,57.70
2022-08-02T20:03:52.633Z,58.40
2022-08-02T20:06:39.104Z,56.70
2022-08-02T20:09:33.473Z,58.30
2022-08-02T20:12:37.075Z,57.80
2022-08-02T20:15:23.306Z,58.50
2022-08-02T20:18:30.507Z,57.70
2022-08-02T20:21:34.295Z,57.80
2022-08-02T20:24:21.136Z,58.70
2022-08-02T20:27:16.600Z,57.30
2022-08-02T20:30:05.312Z,57.90
2022-08-02T20:32:53.043Z,59.00
2022-08-02T20:35:43.240Z,58.50
2022-08-02T20:38:31.965Z,58.80
2022-08-02T20:41:21.417Z,58.60
2022-08-02T20:44:30.724Z,59.30
2022-08-02T20:47:17.245Z,60.10
2022-08-02T20:50:32.915Z,59.80
2022-08-02T20:53:23.711Z,60.00
2022-08-02T20:56:13.992Z,60.00
2022-08-02T20:59:04.162Z,59.90
2022-08-02T21:02:01.854Z,60.20
2022-08-02T21:04:47.688Z,60.70
2022-08-02T21:07:36.166Z,60.80
2022-08-02T21:10:24.515Z,60.70
2022-08-02T21:13:18.882Z,60.90
2022-08-02T21:16:08.921Z,61.10
2022-08-02T21:19:00.005Z,61.40
2022-08-02T21:21:45.927Z,62.30
2022-08-02T21:24:31.484Z,61.60
2022-08-02T21:27:51.938Z,62.10
2022-08-02T21:30:24.365Z,62.00
2022-08-02T21:33:17.883Z,62.00
2022-08-02T21:36:08.408Z,62.50
2022-08-02T21:38:57.388Z,62.90
2022-08-02T21:41:46.669Z,63.90
2022-08-02T21:44:32.896Z,64.30
2022-08-02T21:47:27.842Z,66.00
2022-08-02T21:50:16.276Z,65.80
2022-08-02T21:53:02.783Z,65.90
2022-08-02T21:56:00.269Z,65.70
2022-08-02T21:58:46.861Z,65.60
2022-08-02T22:01:34.972Z,65.60
2022-08-02T22:04:21.916Z,66.10
2022-08-02T22:07:08.151Z,67.50
2022-08-02T22:09:54.110Z,69.20
2022-08-02T22:12:41.069Z,70.20
2022-08-02T22:15:36.120Z,69.20
2022-08-02T22:18:27.142Z,68.70
2022-08-02T22:21:16.813Z,68.50
2022-08-02T22:24:05.282Z,68.30
2022-08-02T22:26:58.780Z,67.80
2022-08-02T22:29:44.792Z,67.70
2022-08-02T22:32:50.769Z,68.10
2022-08-02T22:35:36.902Z,68.50
2022-08-02T22:38:25.234Z,68.40
2022-08-02T22:41:11.751Z,69.30
2022-08-02T22:43:57.662Z,70.30
2022-08-02T22:46:43.532Z,70.70
2022-08-02T22:49:39.069Z,70.40
2022-08-02T22:52:31.593Z,69.70
2022-08-02T22:55:17.614Z,69.90
2022-08-02T22:58:03.398Z,70.10
2022-08-02T22:58:43.502Z,45.30
2022-08-02T23:00:49.952Z,69.50
2022-08-02T23:03:37.425Z,69.50
2022-08-02T23:06:23.046Z,69.20
2022-08-02T23:09:08.883Z,69.50
2022-08-02T23:11:54.571Z,70.90
2022-08-02T23:14:40.007Z,71.70
2022-08-02T23:17:44.098Z,71.80
2022-08-02T23:20:29.812Z,71.80
2022-08-02T23:23:15.044Z,71.60
2022-08-02T23:26:00.598Z,72.80
2022-08-02T23:28:46.081Z,72.30
2022-08-02T23:31:38.236Z,72.30
2022-08-02T23:34:24.014Z,72.00
2022-08-02T23:37:09.690Z,72.80
2022-08-02T23:39:55.333Z,72.20
2022-08-02T23:42:41.084Z,73.30
2022-08-02T23:45:26.654Z,73.20
2022-08-02T23:48:23.359Z,73.90
2022-08-02T23:51:08.990Z,73.80
2022-08-02T23:54:01.213Z,73.20
2022-08-02T23:56:47.173Z,72.40
2022-08-02T23:59:33.117Z,73.00
